Latest Weather Observations for Mackay

IDQ60801

Issued at 9:05 pm EST Friday 31 October 2014 (issued every 30 minutes, with the page automatically refreshed every 10 minutes)

About weather observations | Map of weather stations | Latest weather observations for QLD | Other Formats
Station Details ID: 033119 Name: MACKAY M.O Lat: -21.12 Lon: 149.22 Height: 30.26 m
Data from the previous 72 hours. | See also: Recent months at Mackay
Date/Time
EST
Temp
°C
App
Temp
°C
Dew
Point
Rel
Hum
%
Delta-T
°C
Wind Press
QNH
hPa
Press
MSL
hPa
Rain
since 9 am
mm
Dir
 
Spd
km/h
Gust
km/h
Spd
kts
Gust
kts
31/09:00pm 23.2 24.8 19.1 78 2.6 NNE 9 15 5 8 1015.3 1015.1 0.0
31/08:30pm 23.3 24.5 19.1 77 2.7 NNE 11 15 6 8 1015.0 1014.8 0.0
31/08:00pm 23.4 25.5 19.3 78 2.6 NNE 7 13 4 7 1014.9 1014.7 0.0
31/07:30pm 23.5 25.4 18.9 75 2.9 NE 7 15 4 8 1014.9 1014.7 0.0
31/07:00pm 23.8 25.3 18.9 74 3.1 NNE 9 15 5 8 1014.6 1014.4 0.0
31/06:30pm 24.1 25.1 18.6 71 3.5 NE 11 17 6 9 1014.3 1014.1 0.0
31/06:00pm 24.6 26.1 18.8 70 3.7 NE 9 15 5 8 1014.2 1014.0 0.0
31/05:30pm 25.7 27.3 19.2 67 4.2 NNE 9 13 5 7 1013.9 1013.7 0.0
31/05:00pm 26.2 27.7 19.0 64 4.6 NE 9 17 5 9 1013.5 1013.3 0.0
31/04:30pm 26.5 27.8 19.2 64 4.7 NE 11 17 6 9 1013.2 1013.0 0.0
31/04:00pm 27.7 29.0 19.2 60 5.5 NE 11 19 6 10 1013.2 1013.0 0.0
31/03:30pm 26.8 27.8 19.4 64 4.8 ENE 13 20 7 11 1013.3 1013.1 0.0
31/03:00pm 27.6 28.8 19.9 63 5.0 ENE 13 20 7 11 1013.4 1013.2 0.0
31/02:30pm 28.3 29.6 20.2 61 5.3 ENE 13 22 7 12 1013.7 1013.5 0.0
31/02:00pm 28.3 29.5 19.9 60 5.5 NE 13 20 7 11 1013.8 1013.6 0.0
31/01:30pm 28.6 29.8 19.9 59 5.7 NE 13 24 7 13 1013.8 1013.6 0.0
31/01:00pm 29.6 30.4 19.1 53 6.8 NNE 13 20 7 11 1014.2 1014.0 0.0
31/12:30pm 28.9 29.5 19.5 57 6.1 NNE 15 22 8 12 1014.8 1014.6 0.0
31/12:00pm 30.0 30.8 19.1 52 7.1 NNE 13 20 7 11 1015.2 1015.0 0.0
31/11:30am 30.4 31.1 19.7 52 7.0 NNE 15 26 8 14 1015.4 1015.2 0.0
31/11:00am 30.0 31.1 20.5 56 6.3 NNE 15 24 8 13 1015.5 1015.3 0.0
31/10:30am 29.7 30.9 20.0 56 6.4 NNE 13 22 7 12 1015.7 1015.5 0.0
31/10:00am 29.4 30.5 19.6 55 6.4 NNE 13 20 7 11 1015.9 1015.7 0.0
31/09:30am 28.9 30.4 19.7 57 6.0 NNE 11 19 6 10 1016.0 1015.8 0.0
31/09:00am 28.3 29.7 19.5 59 5.7 NNE 11 20 6 11 1016.0 1015.8 0.0
31/08:30am 27.1 28.1 19.4 62 5.0 NNE 13 19 7 10 1015.9 1015.7 0.0
31/08:00am 26.8 28.5 19.4 64 4.8 N 9 17 5 9 1015.8 1015.6 0.0
31/07:30am 26.0 27.9 19.7 68 4.1 NNE 9 17 5 9 1015.7 1015.5 0.0
31/07:00am 23.9 26.9 20.0 79 2.5 WSW 4 7 2 4 1015.5 1015.3 0.0
31/06:30am 23.2 25.7 19.8 81 2.2 SSE 6 9 3 5 1015.2 1015.0 0.0
31/06:00am 23.9 26.0 20.2 80 2.4 NNE 9 15 5 8 1014.6 1014.4 0.0
31/05:30am 22.5 24.7 19.7 84 1.8 N 7 11 4 6 1014.1 1013.9 0.0
31/05:00am 22.1 24.2 19.4 85 1.7 N 7 11 4 6 1013.9 1013.7 0.0
31/04:30am 22.8 24.5 19.4 81 2.2 N 9 15 5 8 1013.7 1013.5 0.0
31/04:00am 22.3 23.9 19.1 82 2.0 N 9 15 5 8 1013.6 1013.4 0.0
31/03:30am 22.6 24.8 19.5 82 2.0 N 7 11 4 6 1013.6 1013.4 0.0
31/03:00am 22.8 24.8 19.2 80 2.3 N 7 11 4 6 1013.7 1013.5 0.0
31/02:30am 22.4 24.5 19.4 83 1.9 N 7 13 4 7 1013.8 1013.6 0.0
31/02:00am 22.6 24.2 19.1 80 2.2 NNE 9 15 5 8 1013.7 1013.5 0.0
31/01:30am 22.5 23.7 19.0 80 2.2 NNE 11 17 6 9 1014.0 1013.8 0.0
31/01:00am 22.4 23.9 18.9 80 2.2 NNE 9 17 5 9 1014.1 1013.9 0.0
31/12:30am 22.3 24.5 19.3 83 1.9 NNE 6 9 3 5 1015.1 1014.9 0.0
31/12:00am 22.7 24.7 19.2 80 2.2 N 7 11 4 6 1014.8 1014.6 0.0
 
Date/Time
EST
Temp
°C
App
Temp
°C
Dew
Point
Rel
Hum
%
Delta-T
°C
Wind Press
QNH
hPa
Press
MSL
hPa
Rain
since 9 am
mm
Dir
 
Spd
km/h
Gust
km/h
Spd
kts
Gust
kts
30/11:30pm 22.9 25.0 19.3 80 2.3 N 7 11 4 6 1014.8 1014.6 0.0
30/11:00pm 22.9 24.7 19.6 81 2.1 NNE 9 15 5 8 1015.0 1014.8 0.0
30/10:30pm 23.2 25.5 19.8 81 2.2 NNE 7 13 4 7 1015.2 1015.0 0.0
30/10:00pm 23.5 25.1 19.9 80 2.3 NNE 11 17 6 9 1015.1 1014.9 0.0
30/09:30pm 23.5 25.5 19.9 80 2.3 NNE 9 15 5 8 1015.0 1014.8 0.0
30/09:00pm 23.5 25.4 19.8 80 2.4 NE 9 17 5 9 1014.7 1014.5 0.0
30/08:30pm 23.7 25.7 20.0 80 2.4 NNE 9 15 5 8 1014.5 1014.3 0.0
30/08:00pm 24.1 26.6 20.2 79 2.5 NNE 7 17 4 9 1014.6 1014.4 0.0
30/07:30pm 24.0 26.2 20.3 80 2.4 N 9 17 5 9 1014.6 1014.4 0.0
30/07:00pm 24.2 26.2 19.9 77 2.8 NNE 9 15 5 8 1014.4 1014.2 0.0
30/06:30pm 24.4 25.9 19.7 75 3.0 NNE 11 19 6 10 1013.8 1013.6 0.0
30/06:00pm 24.7 27.0 20.6 78 2.7 NNE 9 15 5 8 1013.5 1013.3 0.0
30/05:30pm 25.1 27.0 20.5 75 3.0 NE 11 19 6 10 1013.4 1013.2 0.0
30/05:00pm 26.5 28.0 20.6 70 3.9 NNE 13 19 7 10 1013.1 1012.9 0.0
30/04:30pm 26.6 28.3 20.2 68 4.2 NE 11 20 6 11 1012.7 1012.5 0.0
30/04:00pm 27.4 28.7 20.1 64 4.8 NE 13 20 7 11 1012.6 1012.4 0.0
30/03:30pm 28.2 30.1 20.6 63 5.0 NNE 11 20 6 11 1012.7 1012.5 0.0
30/03:00pm 28.8 30.0 20.0 59 5.8 NNE 13 24 7 13 1012.7 1012.5 0.0
30/02:30pm 28.9 30.0 20.4 60 5.6 NNE 15 24 8 13 1012.8 1012.6 0.0
30/02:00pm 30.0 31.6 20.8 57 6.1 NNE 13 20 7 11 1013.0 1012.8 0.0
30/01:30pm 29.6 30.3 20.5 58 6.0 NNE 17 24 9 13 1013.2 1013.0 0.0
30/01:00pm 29.8 31.3 20.6 57 6.1 NNE 13 22 7 12 1013.5 1013.3 0.0
30/12:30pm 29.7 30.2 20.1 56 6.3 NNE 17 26 9 14 1013.8 1013.6 0.0
30/12:00pm 30.3 31.7 20.3 55 6.6 NNE 13 22 7 12 1014.3 1014.1 0.0
30/11:30am 30.3 30.9 20.3 55 6.6 NNE 17 24 9 13 1014.6 1014.4 0.0
30/11:00am 30.7 31.8 20.5 54 6.8 NNE 15 26 8 14 1014.8 1014.6 0.0
30/10:30am 30.5 31.6 20.4 54 6.7 NNE 15 24 8 13 1015.0 1014.8 0.0
30/10:00am 29.6 30.8 20.7 58 5.9 NNE 15 24 8 13 1015.1 1014.9 0.0
30/09:30am 29.0 30.2 20.7 61 5.5 N 15 26 8 14 1014.9 1014.7 0.0
30/09:00am 28.4 29.1 19.7 59 5.7 NNE 15 30 8 16 1014.5 1014.3 0.0
30/08:30am 28.0 28.6 20.2 62 5.1 N 17 28 9 15 1014.8 1014.6 0.0
30/08:00am 26.4 27.0 19.4 65 4.5 N 15 20 8 11 1015.2 1015.0 0.0
30/07:30am 24.0 25.6 20.0 78 2.6 N 11 17 6 9 1015.4 1015.2 0.0
30/07:00am 23.5 25.3 20.3 82 2.1 N 11 15 6 8 1015.7 1015.5 0.0
30/06:30am 21.3 23.8 20.2 93 0.7 N 7 11 4 6 1015.7 1015.5 0.0
30/06:00am 20.6 22.9 19.8 95 0.5 NNW 7 9 4 5 1015.8 1015.6 0.0
30/05:30am 20.8 23.2 20.0 95 0.5 NNW 7 9 4 5 1016.0 1015.8 0.0
30/05:00am 20.8 21.3 20.0 95 0.5 SW 17 24 9 13 1016.4 1016.2 0.0
30/04:30am 20.6 22.6 20.0 96 0.4 SW 9 11 5 6 1014.5 1014.3 0.0
30/04:00am 21.1 23.8 20.2 95 0.6 W 6 7 3 4 1013.8 1013.6 0.0
30/03:30am 21.4 24.5 20.3 93 0.7 WNW 4 7 2 4 1013.3 1013.1 0.0
30/03:00am 21.7 24.3 20.5 93 0.8 NW 7 11 4 6 1013.1 1012.9 0.0
30/02:30am 22.3 25.1 20.8 91 1.0 WNW 7 11 4 6 1012.8 1012.6 0.0
30/02:00am 22.4 24.4 20.7 90 1.1 NNW 11 15 6 8 1012.4 1012.2 0.0
30/01:30am 22.6 24.2 20.8 89 1.2 NNW 13 17 7 9 1012.5 1012.3 0.0
30/01:00am 22.7 24.7 20.7 88 1.3 NNW 11 17 6 9 1012.9 1012.7 0.0
30/12:30am 22.9 24.9 20.8 88 1.4 NNW 11 17 6 9 1013.1 1012.9 0.0
30/12:00am 23.3 25.0 20.9 86 1.6 NNW 13 22 7 12 1013.4 1013.2 0.0
 
Date/Time
EST
Temp
°C
App
Temp
°C
Dew
Point
Rel
Hum
%
Delta-T
°C
Wind Press
QNH
hPa
Press
MSL
hPa
Rain
since 9 am
mm
Dir
 
Spd
km/h
Gust
km/h
Spd
kts
Gust
kts
29/11:30pm 23.4 25.6 21.1 87 1.5 N 11 17 6 9 1013.5 1013.3 0.0
29/11:20pm 23.3 25.0 21.0 87 1.5 N 13 20 7 11 1013.7 1013.5 0.0
29/11:00pm 23.5 25.3 21.1 86 1.6 NNW 13 20 7 11 1013.8 1013.6 0.0
29/10:30pm 23.7 25.1 21.1 85 1.7 N 15 24 8 13 1013.9 1013.7 0.0
29/10:20pm 23.7 25.6 21.3 86 1.6 N 13 24 7 13 1014.1 1013.9 0.0
29/10:00pm 23.7 25.2 21.3 86 1.6 N 15 26 8 14 1014.1 1013.9 0.0
29/09:30pm 23.6 25.1 21.2 86 1.6 N 15 22 8 12 1014.1 1013.9 0.0
29/09:00pm 23.7 25.1 21.1 85 1.7 N 15 24 8 13 1013.9 1013.7 0.0
29/08:30pm 23.8 25.2 21.1 85 1.8 N 15 28 8 15 1013.8 1013.6 0.0
29/08:00pm 23.9 25.3 21.0 84 1.9 N 15 24 8 13 1013.7 1013.5 0.0
29/07:30pm 24.0 24.9 20.8 82 2.1 N 17 30 9 16 1013.5 1013.3 0.0
29/07:00pm 24.1 24.9 20.7 81 2.2 N 17 32 9 17 1013.2 1013.0 0.0
29/06:30pm 24.2 24.9 20.5 80 2.4 N 17 28 9 15 1012.9 1012.7 0.0
29/06:00pm 24.6 25.4 20.6 78 2.6 N 17 28 9 15 1012.5 1012.3 0.0
29/05:30pm 25.3 26.1 20.6 75 3.1 N 17 28 9 15 1012.2 1012.0 0.0
29/05:00pm 25.8 26.0 20.5 72 3.5 N 20 37 11 20 1011.8 1011.6 0.0
29/04:30pm 26.2 26.5 20.7 71 3.6 N 20 32 11 17 1011.5 1011.3 0.0
29/04:00pm 26.7 26.5 20.5 69 4.1 N 22 35 12 19 1011.2 1011.0 0.0
29/03:30pm 28.4 28.8 20.7 63 5.1 N 19 30 10 16 1011.4 1011.2 0.0
29/03:00pm 28.9 29.8 20.8 61 5.4 N 17 30 9 16 1011.6 1011.4 0.0
29/02:30pm 28.9 29.7 20.6 61 5.5 N 17 32 9 17 1011.7 1011.5 0.0
29/02:00pm 28.7 29.0 20.7 62 5.3 N 20 37 11 20 1011.9 1011.7 0.0
29/01:30pm 28.8 28.7 19.6 57 6.0 N 19 30 10 16 1012.2 1012.0 0.0
29/01:00pm 29.0 28.8 19.7 57 6.1 N 20 35 11 19 1012.5 1012.3 0.0
29/12:30pm 28.7 28.1 19.7 58 5.9 N 22 35 12 19 1013.0 1012.8 0.0
29/12:00pm 30.0 30.2 20.1 55 6.5 N 19 32 10 17 1013.1 1012.9 0.0
29/11:30am 29.2 29.2 20.2 58 5.9 N 20 32 11 17 1013.5 1013.3 0.0
29/11:00am 29.3 29.4 20.0 57 6.1 N 19 32 10 17 1013.7 1013.5 0.0
29/10:30am 28.6 28.4 19.4 57 6.0 N 19 32 10 17 1014.3 1014.1 0.0
29/10:00am 28.3 28.2 19.5 59 5.7 N 19 28 10 15 1014.6 1014.4 0.0
29/09:30am 27.8 28.3 20.0 62 5.1 N 17 24 9 13 1014.7 1014.5 0.0
29/09:00am 27.2 27.8 20.2 65 4.6 N 17 26 9 14 1014.7 1014.5 0.0
29/08:30am 26.7 28.1 20.4 68 4.1 N 13 20 7 11 1014.9 1014.7 0.0
29/08:00am 25.8 26.7 20.1 71 3.7 N 15 22 8 12 1014.4 1014.2 0.0
29/07:30am 24.1 24.3 20.1 78 2.6 NNW 19 26 10 14 1013.6 1013.4 0.0
29/07:00am 23.1 23.7 20.3 84 1.8 NNW 17 24 9 13 1013.3 1013.1 0.0
29/06:30am 21.7 23.8 20.1 91 1.0 WNW 9 13 5 7 1013.4 1013.2 0.0
29/06:00am 20.8 22.7 19.7 93 0.7 NW 9 17 5 9 1013.1 1012.9 0.0
29/05:30am 20.7 22.5 19.6 93 0.7 WNW 9 13 5 7 1012.9 1012.7 0.0
29/05:00am 21.0 21.3 19.7 92 0.8 NNW 17 20 9 11 1012.7 1012.5 0.0
29/04:30am 21.3 22.1 19.9 92 0.9 NNW 15 20 8 11 1012.6 1012.4 0.0
29/04:00am 21.4 22.2 19.8 91 1.0 N 15 20 8 11 1012.9 1012.7 0.0
29/03:30am 21.3 22.4 19.7 91 1.0 N 13 17 7 9 1012.8 1012.6 0.0
29/03:00am 20.8 23.1 19.9 95 0.6 N 7 11 4 6 1013.2 1013.0 0.0
29/02:30am 21.4 24.0 20.0 92 0.9 ESE 6 9 3 5 1013.4 1013.2 0.0
29/02:00am 20.8 23.0 19.7 93 0.7 SSE 7 15 4 8 1013.9 1013.7 0.0
29/01:30am 21.1 22.6 19.8 92 0.8 S 11 19 6 10 1014.1 1013.9 0.0
29/01:00am 21.3 22.4 19.7 91 1.0 S 13 28 7 15 1013.7 1013.5 0.0
29/12:30am 21.7 23.2 19.7 88 1.3 NNW 11 15 6 8 1012.6 1012.4 0.0
29/12:00am 21.6 23.1 19.7 89 1.2 NNW 11 13 6 7 1012.8 1012.6 0.0
 
Date/Time
EST
Temp
°C
App
Temp
°C
Dew
Point
Rel
Hum
%
Delta-T
°C
Wind Press
QNH
hPa
Press
MSL
hPa
Rain
since 9 am
mm
Dir
 
Spd
km/h
Gust
km/h
Spd
kts
Gust
kts
28/11:30pm 21.9 23.9 19.9 88 1.3 NNW 9 13 5 7 1013.1 1012.9 0.0
28/11:00pm 22.4 24.4 19.9 86 1.6 NW 9 15 5 8 1013.2 1013.0 0.0
28/10:30pm 22.9 24.2 20.1 84 1.8 NNW 13 19 7 10 1013.4 1013.2 0.0
28/10:00pm 23.2 24.2 20.3 84 1.9 NNW 15 26 8 14 1013.4 1013.2 0.0
28/09:30pm 23.4 23.6 20.2 82 2.1 NNW 19 30 10 16 1013.3 1013.1 0.0

Other Formats:

Comma delimited format used in spreadsheet applications
http://www.bom.gov.au/fwo/IDQ60801/IDQ60801.94367.axf

JavaScript Object Notation format (JSON) in row-major order
http://www.bom.gov.au/fwo/IDQ60801/IDQ60801.94367.json